Time;durP1;ratioP1;P1;durP2;ratioP2;P2;SDS_P1;SDS_P2;PMS_P1;PMS_P2;Temp;Humidity;BMP_temperature;BMP_pressure;BME280_temperature;BME280_humidity;BME280_pressure;Samples;Min_cycle;Max_cycle;Signal;HPM_P1;HPM_P2
2021/05/18 00:00:54;;;;;;;1.70;0.93;;;23.60;51.40;;;;;;5050839;28;20779;-85
2021/05/18 00:03:20;;;;;;;1.90;1.10;;;23.50;50.80;;;;;;5050686;28;20407;-85
2021/05/18 00:05:55;;;;;;;1.63;1.10;;;23.50;51.20;;;;;;5050384;28;20406;-85
2021/05/18 00:08:23;;;;;;;2.03;1.17;;;23.60;51.00;;;;;;5029496;28;20424;-85
2021/05/18 00:13:49;;;;;;;1.37;0.90;;;23.50;50.80;;;;;;5050170;28;20441;-83
2021/05/18 00:16:18;;;;;;;1.77;1.10;;;23.50;51.00;;;;;;5049769;28;20462;-84
2021/05/18 00:18:46;;;;;;;1.63;0.80;;;23.50;51.10;;;;;;5032636;28;20489;-84
2021/05/18 00:21:12;;;;;;;1.40;1.00;;;23.50;51.00;;;;;;5032193;28;20421;-84
2021/05/18 00:23:39;;;;;;;1.30;0.83;;;23.50;51.00;;;;;;5050482;28;20856;-83
2021/05/18 00:26:08;;;;;;;1.83;1.10;;;23.50;51.10;;;;;;5032396;28;20450;-84
2021/05/18 00:28:34;;;;;;;1.63;1.20;;;23.50;51.10;;;;;;5033004;28;20421;-84
2021/05/18 00:31:03;;;;;;;1.20;1.00;;;23.50;51.40;;;;;;5032019;28;20458;-86
2021/05/18 00:33:30;;;;;;;2.23;1.70;;;23.50;51.20;;;;;;5032655;28;20270;-86
2021/05/18 00:35:58;;;;;;;1.20;0.93;;;23.50;51.20;;;;;;5035923;28;20421;-85
2021/05/18 00:38:24;;;;;;;1.20;0.87;;;23.50;51.20;;;;;;5036047;28;20464;-85
2021/05/18 00:40:51;;;;;;;1.40;1.07;;;23.50;51.10;;;;;;5054392;28;20403;-85
2021/05/18 00:43:18;;;;;;;1.20;1.00;;;23.50;51.00;;;;;;5020560;28;20167;-85
2021/05/18 00:45:47;;;;;;;2.90;0.97;;;23.40;51.50;;;;;;5036556;28;20422;-85
2021/05/18 00:48:19;;;;;;;1.10;0.90;;;23.60;51.10;;;;;;5036412;28;20509;-85
2021/05/18 00:50:52;;;;;;;1.93;1.00;;;23.40;50.90;;;;;;5036341;28;20418;-85
2021/05/18 00:53:20;;;;;;;1.47;0.90;;;23.40;51.00;;;;;;5035926;28;20493;-85
2021/05/18 00:56:07;;;;;;;1.43;1.23;;;23.40;51.10;;;;;;5018279;28;20418;-83
2021/05/18 00:58:39;;;;;;;1.40;0.90;;;23.40;51.10;;;;;;5034745;28;20461;-83
2021/05/18 01:01:14;;;;;;;1.57;0.80;;;23.40;51.20;;;;;;5034417;28;20438;-81
2021/05/18 01:03:44;;;;;;;2.00;1.20;;;23.40;51.20;;;;;;5033891;28;20480;-84
2021/05/18 01:09:12;;;;;;;3.20;1.00;;;23.40;51.10;;;;;;5052052;28;20466;-84
2021/05/18 01:11:48;;;;;;;1.77;0.93;;;23.40;51.10;;;;;;5033009;28;20506;-84
2021/05/18 01:14:17;;;;;;;2.13;1.20;;;23.40;51.20;;;;;;5034568;28;20414;-83
2021/05/18 01:16:47;;;;;;;2.53;1.00;;;23.40;51.10;;;;;;5033984;28;20421;-83
2021/05/18 01:19:18;;;;;;;1.47;0.90;;;23.40;51.20;;;;;;5033876;28;20869;-85
2021/05/18 01:21:47;;;;;;;1.90;1.30;;;23.40;51.20;;;;;;5036167;28;20465;-85
2021/05/18 01:24:16;;;;;;;1.50;1.20;;;23.40;51.20;;;;;;5036125;28;20419;-85
2021/05/18 01:26:46;;;;;;;1.60;1.00;;;23.40;51.20;;;;;;5053144;28;20486;-85
2021/05/18 01:29:13;;;;;;;1.00;0.90;;;23.40;51.20;;;;;;5036067;28;20498;-85
2021/05/18 01:31:43;;;;;;;1.30;1.00;;;23.30;51.30;;;;;;5053429;28;20437;-85
2021/05/18 01:34:11;;;;;;;1.23;0.80;;;23.40;51.20;;;;;;5034108;28;20985;-87
2021/05/18 01:36:39;;;;;;;1.23;0.90;;;23.40;51.10;;;;;;5052187;28;20434;-86
2021/05/18 01:44:20;;;;;;;1.03;0.80;;;23.30;51.10;;;;;;5052564;28;20390;-86
2021/05/18 01:50:35;;;;;;;1.00;0.80;;;23.40;51.10;;;;;;5053072;28;20179;-85
2021/05/18 01:53:08;;;;;;;1.60;1.10;;;23.30;51.10;;;;;;5034924;28;20403;-85
2021/05/18 01:55:54;;;;;;;1.30;0.90;;;23.30;51.10;;;;;;5018462;28;20429;-85
2021/05/18 01:58:20;;;;;;;2.57;1.20;;;23.30;51.30;;;;;;5034134;28;20513;-86
2021/05/18 02:00:47;;;;;;;1.10;0.90;;;23.30;51.50;;;;;;5017860;28;20471;-86
2021/05/18 02:03:16;;;;;;;1.30;1.00;;;23.30;51.30;;;;;;5051633;28;20414;-83
2021/05/18 02:05:45;;;;;;;1.20;1.00;;;23.30;51.10;;;;;;5033900;28;20421;-84
2021/05/18 02:08:14;;;;;;;1.00;0.80;;;23.30;51.10;;;;;;5033990;28;20419;-86
2021/05/18 02:10:41;;;;;;;1.20;0.97;;;23.30;51.20;;;;;;5034354;28;20422;-86
2021/05/18 02:13:16;;;;;;;1.60;1.03;;;23.30;51.10;;;;;;5034361;28;20414;-82
2021/05/18 02:18:52;;;;;;;1.30;0.90;;;23.30;51.10;;;;;;5051361;28;20448;-82
2021/05/18 02:25:01;;;;;;;1.10;0.80;;;23.30;51.40;;;;;;5051327;28;20414;-82
2021/05/18 02:26:43;;;;;;;1.20;0.80;;;23.30;51.20;;;;;;5033900;28;20415;-85
2021/05/18 02:29:09;;;;;;;1.40;1.00;;;23.20;51.50;;;;;;5034310;28;20429;-85
2021/05/18 02:31:35;;;;;;;1.27;0.93;;;23.20;51.50;;;;;;5034857;28;20239;-85
2021/05/18 02:34:07;;;;;;;1.00;0.70;;;23.30;51.30;;;;;;5051691;28;20180;-85
2021/05/18 02:36:34;;;;;;;1.00;0.70;;;23.30;51.10;;;;;;5033327;28;20427;-85
2021/05/18 02:39:03;;;;;;;1.50;0.90;;;23.30;51.40;;;;;;5033977;28;20464;-85
2021/05/18 02:41:29;;;;;;;1.40;0.90;;;23.30;51.20;;;;;;5033813;28;20473;-85
2021/05/18 02:44:00;;;;;;;1.10;0.80;;;23.30;51.40;;;;;;5042623;28;20430;-85
2021/05/18 02:49:15;;;;;;;1.00;0.80;;;23.30;51.20;;;;;;5047660;28;20399;-85
2021/05/18 02:51:46;;;;;;;1.20;0.87;;;23.30;51.50;;;;;;5042331;28;20430;-85
2021/05/18 02:54:18;;;;;;;1.00;0.80;;;23.30;51.10;;;;;;5025368;28;20462;-83
2021/05/18 02:59:48;;;;;;;1.20;0.80;;;23.30;51.10;;;;;;4988055;28;20429;-83
2021/05/18 03:02:14;;;;;;;2.10;0.93;;;23.30;51.30;;;;;;5038616;28;20422;-85
2021/05/18 03:04:40;;;;;;;1.20;0.90;;;23.30;51.20;;;;;;5033457;28;20460;-84
2021/05/18 03:07:06;;;;;;;1.63;0.77;;;23.40;51.20;;;;;;5044783;28;20426;-85
2021/05/18 03:09:32;;;;;;;1.27;0.80;;;23.30;51.30;;;;;;5034115;28;20453;-84
2021/05/18 03:11:58;;;;;;;1.77;0.93;;;23.40;51.60;;;;;;5051633;28;20172;-85
2021/05/18 03:14:33;;;;;;;1.10;0.80;;;23.40;51.30;;;;;;5018101;28;20434;-85
2021/05/18 03:17:01;;;;;;;1.67;0.93;;;23.40;51.10;;;;;;5034190;28;20413;-85
2021/05/18 03:19:27;;;;;;;1.53;1.43;;;23.40;51.20;;;;;;5033642;28;20458;-84
2021/05/18 03:21:53;;;;;;;1.50;1.00;;;23.40;51.30;;;;;;5033916;28;20441;-83
2021/05/18 03:24:19;;;;;;;1.03;0.70;;;23.40;51.10;;;;;;5016084;28;20182;-82
2021/05/18 03:26:50;;;;;;;1.53;0.90;;;23.40;51.40;;;;;;5049805;28;20405;-82
2021/05/18 03:29:27;;;;;;;1.87;0.83;;;23.40;51.00;;;;;;5032346;28;20445;-83
2021/05/18 03:35:25;;;;;;;0.90;0.70;;;23.30;51.00;;;;;;5049944;28;20397;-81
2021/05/18 03:37:53;;;;;;;1.77;0.93;;;23.30;51.20;;;;;;5033203;28;20492;-82
2021/05/18 03:40:25;;;;;;;1.27;1.00;;;23.30;51.20;;;;;;5016755;28;20438;-82
2021/05/18 03:42:58;;;;;;;1.20;0.90;;;23.30;51.30;;;;;;5032777;28;20456;-82
2021/05/18 03:45:29;;;;;;;1.10;0.93;;;23.30;51.40;;;;;;5032426;28;20410;-82
2021/05/18 04:05:00;;;;;;;2.33;0.80;;;23.20;51.30;;;;;;5050862;28;20398;-85
2021/05/18 04:10:19;;;;;;;1.40;0.80;;;23.10;51.20;;;;;;5050957;28;20413;-85
2021/05/18 04:12:49;;;;;;;1.00;0.70;;;23.10;51.40;;;;;;5034058;28;20409;-84
2021/05/18 04:20:54;;;;;;;1.73;1.10;;;23.10;51.40;;;;;;5049142;28;20430;-83
2021/05/18 04:23:39;;;;;;;1.40;0.80;;;23.10;51.30;;;;;;5031923;28;20413;-84
2021/05/18 04:48:24;;;;;;;2.03;0.80;;;23.20;51.20;;;;;;5049737;28;20466;-87
2021/05/18 05:08:18;;;;;;;1.40;1.00;;;23.10;51.20;;;;;;5069651;28;20403;-86
2021/05/18 05:23:55;;;;;;;1.53;0.90;;;23.20;50.90;;;;;;4991912;28;20412;-87
2021/05/18 05:30:41;;;;;;;1.40;0.77;;;23.30;51.10;;;;;;4974653;29;20438;-87
2021/05/18 05:47:02;;;;;;;1.37;0.73;;;23.20;51.00;;;;;;4863357;29;20406;-87
2021/05/18 05:49:28;;;;;;;2.27;1.00;;;23.20;51.10;;;;;;4861476;29;20495;-87
2021/05/18 05:52:00;;;;;;;1.10;0.87;;;23.20;51.60;;;;;;4861778;29;20438;-87
2021/05/18 05:54:35;;;;;;;1.70;1.10;;;23.20;51.10;;;;;;4861531;29;20418;-87
2021/05/18 05:57:12;;;;;;;1.20;1.00;;;23.20;51.10;;;;;;4896946;29;20519;-88
2021/05/18 05:59:59;;;;;;;;;;;;;;;;;;;;;
2021/05/18 06:02:27;;;;;;;1.03;0.80;;;23.20;51.10;;;;;;4907979;29;20898;-87
2021/05/18 06:04:55;;;;;;;1.57;1.13;;;23.20;50.90;;;;;;4932091;29;20431;-86
2021/05/18 06:07:47;;;;;;;1.33;0.90;;;23.30;51.10;;;;;;4959344;29;20406;-86
2021/05/18 06:10:30;;;;;;;1.50;1.13;;;23.30;50.90;;;;;;4954415;29;20410;-87
2021/05/18 06:41:56;;;;;;;2.30;1.00;;;23.20;50.90;;;;;;5050522;28;20386;-87
2021/05/18 06:47:53;;;;;;;1.67;0.87;;;23.30;51.10;;;;;;5051194;28;20389;-87
2021/05/18 06:51:05;;;;;;;1.53;1.20;;;23.30;51.00;;;;;;5050372;28;20429;-87
2021/05/18 06:57:05;;;;;;;2.73;1.00;;;23.30;50.90;;;;;;4950968;29;20431;-86
2021/05/18 07:09:04;;;;;;;1.20;0.87;;;23.30;50.90;;;;;;4915115;29;20432;-85
2021/05/18 07:11:40;;;;;;;1.93;1.00;;;23.30;50.90;;;;;;4906443;29;20678;-85
2021/05/18 07:14:33;;;;;;;;;;;;;;;;;;;;;
2021/05/18 07:20:23;;;;;;;2.33;1.10;;;23.40;51.00;;;;;;4914956;29;20441;-85
2021/05/18 07:23:08;;;;;;;1.37;1.00;;;23.30;51.00;;;;;;4914925;29;20400;-85
2021/05/18 07:33:04;;;;;;;2.40;1.00;;;23.40;50.90;;;;;;4992562;28;20412;-84
2021/05/18 07:35:43;;;;;;;3.00;1.00;;;23.40;50.90;;;;;;4969878;29;20504;-85
2021/05/18 07:39:05;;;;;;;2.20;1.10;;;23.30;51.00;;;;;;4971636;29;20999;-86
2021/05/18 10:39:56;;;;;;;;;;;;;;;;;;;;;
2021/05/18 10:42:23;;;;;;;3.57;2.00;;;23.40;51.00;;;;;;4917290;29;20443;-84
2021/05/18 10:45:23;;;;;;;2.57;1.50;;;23.40;51.10;;;;;;4914729;29;20444;-90
2021/05/18 10:58:50;;;;;;;4.93;1.70;;;23.50;51.10;;;;;;4930771;29;20479;-85
2021/05/18 12:07:10;;;;;;;3.50;1.73;;;23.50;51.10;;;;;;4857492;29;20438;-87
2021/05/18 12:13:42;;;;;;;;;;;;;;;;;;;;;
2021/05/18 12:51:15;;;;;;;;;;;;;;;;;;;;;
2021/05/18 12:57:25;;;;;;;3.80;2.00;;;23.60;51.20;;;;;;4822559;29;20516;-83
2021/05/18 13:00:39;;;;;;;;;;;;;;;;;;;;;
2021/05/18 13:03:47;;;;;;;5.50;2.47;;;23.60;51.20;;;;;;4859811;29;20466;-84
2021/05/18 13:06:43;;;;;;;;;;;;;;;;;;;;;
2021/05/18 13:09:29;;;;;;;4.20;2.27;;;23.60;51.30;;;;;;4846626;29;20443;-84
2021/05/18 13:12:21;;;;;;;3.83;1.97;;;23.60;51.20;;;;;;4882584;29;20445;-84
2021/05/18 13:16:15;;;;;;;;;;;;;;;;;;;;;
2021/05/18 13:18:14;;;;;;;3.17;2.33;;;23.60;51.20;;;;;;4872638;29;20533;-84
2021/05/18 13:21:21;;;;;;;3.83;1.70;;;23.60;51.20;;;;;;4897493;29;20432;-84
2021/05/18 13:26:42;;;;;;;5.00;2.23;;;23.60;51.20;;;;;;4896761;29;20398;-83
2021/05/18 13:29:35;;;;;;;2.30;2.03;;;23.60;51.20;;;;;;4898395;29;20611;-82
2021/05/18 13:32:10;;;;;;;3.40;2.00;;;23.60;51.10;;;;;;5069887;28;20964;-83
2021/05/18 13:35:05;;;;;;;3.00;2.00;;;23.60;51.20;;;;;;5055689;28;20394;-82
2021/05/18 13:41:48;;;;;;;5.43;2.17;;;23.60;51.10;;;;;;4991136;28;20452;-83
2021/05/18 13:45:07;;;;;;;5.40;2.47;;;23.60;51.20;;;;;;4917558;29;20410;-83
2021/05/18 13:47:47;;;;;;;5.83;2.23;;;23.60;51.30;;;;;;4858242;29;20419;-85
2021/05/18 13:53:55;;;;;;;3.53;1.90;;;23.60;51.30;;;;;;4857666;29;20442;-85
2021/05/18 13:56:31;;;;;;;3.17;2.13;;;23.50;51.30;;;;;;4857368;29;20510;-85
2021/05/18 13:59:00;;;;;;;5.40;2.33;;;23.50;51.30;;;;;;4887414;29;20488;-84
2021/05/18 14:01:40;;;;;;;3.13;2.00;;;23.50;51.30;;;;;;4879275;29;20432;-85
2021/05/18 14:04:13;;;;;;;5.20;2.20;;;23.60;51.30;;;;;;4895490;29;20420;-84
2021/05/18 14:09:59;;;;;;;2.80;2.07;;;23.60;51.30;;;;;;4931976;29;20469;-84
2021/05/18 14:12:25;;;;;;;6.07;2.07;;;23.60;51.30;;;;;;4919735;29;20429;-85
2021/05/18 14:18:25;;;;;;;3.67;2.27;;;23.60;51.40;;;;;;5031996;28;20453;-84
2021/05/18 14:24:35;;;;;;;3.70;1.73;;;23.60;51.30;;;;;;4991720;28;20392;-83
2021/05/18 14:27:09;;;;;;;2.30;1.87;;;23.50;51.30;;;;;;5032660;28;20452;-83
2021/05/18 14:29:36;;;;;;;2.47;1.60;;;23.50;51.20;;;;;;5033338;28;20422;-84
2021/05/18 14:32:02;;;;;;;3.20;2.10;;;23.50;51.10;;;;;;5032286;28;20461;-83
2021/05/18 14:34:43;;;;;;;4.63;2.10;;;23.50;51.10;;;;;;5032673;28;20939;-83
2021/05/18 14:37:19;;;;;;;3.50;1.77;;;23.50;51.10;;;;;;5050113;28;20575;-83
2021/05/18 14:55:50;;;;;;;3.93;1.80;;;23.50;51.40;;;;;;4986919;28;20408;-85
2021/05/18 14:58:25;;;;;;;3.77;1.80;;;23.50;51.40;;;;;;4987061;28;20461;-85
2021/05/18 15:00:54;;;;;;;4.10;1.90;;;23.50;51.40;;;;;;4973001;28;20423;-85
2021/05/18 15:03:20;;;;;;;4.93;1.70;;;23.50;51.40;;;;;;4988233;28;20421;-85
2021/05/18 15:05:46;;;;;;;3.03;1.60;;;23.50;51.40;;;;;;4987613;28;20409;-84
2021/05/18 15:08:27;;;;;;;3.40;2.33;;;23.50;51.40;;;;;;4971484;28;20553;-84
2021/05/18 15:11:01;;;;;;;2.57;1.87;;;23.50;51.50;;;;;;4988161;28;20169;-85
2021/05/18 15:13:27;;;;;;;2.07;1.70;;;23.50;51.40;;;;;;4989583;28;20758;-85
2021/05/18 15:15:56;;;;;;;2.50;1.93;;;23.50;51.30;;;;;;4973922;28;20433;-84
2021/05/18 15:18:25;;;;;;;3.13;1.80;;;23.50;51.20;;;;;;4974539;28;20205;-85
2021/05/18 15:20:53;;;;;;;3.07;2.27;;;23.50;51.20;;;;;;5024986;28;20415;-85
2021/05/18 15:23:19;;;;;;;2.93;1.70;;;23.50;51.20;;;;;;5031859;28;20429;-85
2021/05/18 15:26:17;;;;;;;5.13;1.90;;;23.50;51.20;;;;;;5033346;28;20438;-84
2021/05/18 15:28:48;;;;;;;5.03;1.60;;;23.50;51.30;;;;;;4989232;28;20174;-85
2021/05/18 15:31:19;;;;;;;3.40;2.07;;;23.60;51.40;;;;;;4971438;28;20496;-86
2021/05/18 15:33:48;;;;;;;4.90;1.60;;;23.50;51.40;;;;;;4973176;28;20547;-86
2021/05/18 15:36:20;;;;;;;3.50;2.43;;;23.50;51.40;;;;;;4971987;28;20437;-86
2021/05/18 15:39:18;;;;;;;3.77;1.90;;;23.60;51.60;;;;;;4988521;28;20467;-86
2021/05/18 15:56:19;;;;;;;;;;;;;;;;;;;;;
2021/05/18 16:57:05;;;;;;;4.17;1.20;;;24.00;51.40;;;;;;4764763;29;20456;-83
2021/05/18 17:00:15;;;;;;;2.10;1.27;;;24.00;51.40;;;;;;4771699;30;20550;-85
2021/05/18 17:03:02;;;;;;;5.30;1.53;;;24.00;51.40;;;;;;4730729;30;20478;-85
2021/05/18 17:05:32;;;;;;;1.80;1.30;;;24.00;51.40;;;;;;4731322;30;20442;-85
2021/05/18 17:08:41;;;;;;;;;;;;;;;;;;;;;
2021/05/18 17:11:17;;;;;;;2.87;2.00;;;24.10;51.40;;;;;;4776111;30;20463;-84
2021/05/18 17:13:55;;;;;;;3.07;1.37;;;24.00;51.30;;;;;;4784884;30;20495;-85
2021/05/18 17:16:24;;;;;;;2.13;1.20;;;24.10;51.40;;;;;;4809980;29;20463;-86
2021/05/18 17:18:55;;;;;;;2.90;1.60;;;24.10;51.30;;;;;;4822624;29;20538;-87
2021/05/18 17:21:24;;;;;;;4.30;1.53;;;24.10;51.30;;;;;;4842893;29;20427;-87
2021/05/18 17:23:54;;;;;;;3.33;1.60;;;24.10;51.30;;;;;;4859938;29;20411;-87
2021/05/18 17:26:31;;;;;;;2.50;1.50;;;24.10;51.30;;;;;;4860373;29;20468;-86
2021/05/18 17:32:17;;;;;;;2.47;1.57;;;24.10;51.20;;;;;;4915144;29;20428;-86
2021/05/18 17:49:15;;;;;;;2.90;1.53;;;24.10;51.20;;;;;;4895624;29;20413;-84
2021/05/18 17:55:09;;;;;;;1.60;1.13;;;24.10;51.30;;;;;;4915370;29;20421;-82
2021/05/18 18:07:53;;;;;;;2.27;1.40;;;24.10;51.30;;;;;;4894058;29;20404;-86
2021/05/18 18:10:57;;;;;;;;;;;;;;;;;;;;;
2021/05/18 18:31:09;;;;;;;;;;;;;;;;;;;;;
2021/05/18 19:35:06;;;;;;;2.67;1.30;;;24.10;51.00;;;;;;4893313;29;20406;-82
2021/05/18 19:50:45;;;;;;;2.30;1.30;;;24.00;50.70;;;;;;4948485;29;20434;-83
2021/05/18 19:53:42;;;;;;;1.77;1.23;;;23.90;50.70;;;;;;4934878;29;20490;-88
2021/05/18 19:56:18;;;;;;;5.73;1.53;;;23.90;50.70;;;;;;4991103;28;20449;-83
2021/05/18 20:30:40;;;;;;;;;;;;;;;;;;;;;
2021/05/18 20:40:01;;;;;;;5.80;3.20;;;23.40;48.70;;;;;;4839741;29;20528;-85
2021/05/18 21:03:01;;;;;;;2.00;1.53;;;23.10;47.90;;;;;;4865059;29;20410;-82
2021/05/18 21:06:03;;;;;;;2.60;1.30;;;23.20;48.00;;;;;;4860588;29;20443;-86
2021/05/18 21:26:29;;;;;;;1.80;1.30;;;23.10;47.80;;;;;;4876737;29;20410;-84
2021/05/18 21:43:21;;;;;;;3.77;1.17;;;23.00;47.50;;;;;;4866320;29;20436;-84
2021/05/18 21:49:59;;;;;;;;;;;;;;;;;;;;;
2021/05/18 21:52:56;;;;;;;1.20;1.00;;;22.80;47.30;;;;;;4768629;30;20448;-85
2021/05/18 21:59:22;;;;;;;;;;;;;;;;;;;;;
2021/05/18 22:26:45;;;;;;;3.37;2.40;;;22.80;47.20;;;;;;4840111;29;20440;-83
2021/05/18 22:29:11;;;;;;;3.10;2.10;;;22.70;47.00;;;;;;4823631;29;20431;-82
2021/05/18 22:31:48;;;;;;;3.80;2.37;;;22.70;47.20;;;;;;4824698;29;20538;-83
2021/05/18 22:34:33;;;;;;;2.57;2.30;;;22.80;47.20;;;;;;4840199;29;20872;-83
2021/05/18 22:37:26;;;;;;;2.30;1.60;;;22.70;46.90;;;;;;4839728;29;20436;-83
2021/05/18 22:39:52;;;;;;;2.10;1.70;;;22.80;47.10;;;;;;4825531;29;20479;-83
2021/05/18 22:42:29;;;;;;;2.03;1.70;;;22.70;47.20;;;;;;4945829;28;20455;-83
2021/05/18 22:45:08;;;;;;;1.77;1.33;;;22.70;46.90;;;;;;4989872;28;20667;-83
2021/05/18 22:51:31;;;;;;;1.57;1.10;;;22.70;46.70;;;;;;4954175;28;20424;-83
2021/05/18 23:07:47;;;;;;;1.50;1.20;;;22.60;46.70;;;;;;5027081;28;20391;-84
2021/05/18 23:10:19;;;;;;;1.63;1.43;;;22.60;46.80;;;;;;5023270;28;20779;-83
2021/05/18 23:12:50;;;;;;;1.93;1.77;;;22.50;46.60;;;;;;5010784;28;20407;-83
2021/05/18 23:15:20;;;;;;;1.50;1.27;;;22.60;46.70;;;;;;5025769;28;20411;-82
2021/05/18 23:17:51;;;;;;;1.20;0.80;;;22.70;46.70;;;;;;5009707;28;20404;-82
2021/05/18 23:20:28;;;;;;;1.50;1.13;;;22.50;46.60;;;;;;5011117;28;20987;-86
2021/05/18 23:23:06;;;;;;;2.40;1.13;;;22.50;46.40;;;;;;5028007;28;20565;-86
2021/05/18 23:25:53;;;;;;;1.33;1.20;;;22.50;46.50;;;;;;5011325;28;20515;-85
2021/05/18 23:28:30;;;;;;;1.10;0.80;;;22.50;46.30;;;;;;5014206;28;20461;-82
2021/05/18 23:31:00;;;;;;;1.20;1.10;;;22.50;46.40;;;;;;5011305;28;20411;-83
2021/05/18 23:33:28;;;;;;;1.37;1.17;;;22.50;46.40;;;;;;5027257;28;20443;-83
2021/05/18 23:36:35;;;;;;;1.80;1.20;;;22.50;46.40;;;;;;5027544;28;20427;-83
2021/05/18 23:39:10;;;;;;;2.07;1.37;;;22.50;46.40;;;;;;4991516;28;20478;-82
2021/05/18 23:41:40;;;;;;;1.90;1.17;;;22.50;46.30;;;;;;4992052;28;20418;-86
2021/05/18 23:44:20;;;;;;;1.50;1.03;;;22.50;46.50;;;;;;5007007;28;20504;-86
2021/05/18 23:46:52;;;;;;;1.33;1.10;;;22.50;46.30;;;;;;4990671;28;20522;-86
2021/05/18 23:49:23;;;;;;;1.93;1.33;;;22.40;46.20;;;;;;5007090;28;20443;-87
2021/05/18 23:52:01;;;;;;;1.17;1.07;;;22.40;46.00;;;;;;5023986;28;20963;-86
